Time;durP1;ratioP1;P1;durP2;ratioP2;P2;SDS_P1;SDS_P2;PMS_P1;PMS_P2;Temp;Humidity;BMP_temperature;BMP_pressure;BME280_temperature;BME280_humidity;BME280_pressure;Samples;Min_cycle;Max_cycle;Signal;HPM_P1;HPM_P2
2022/10/08 00:01:38;0.00;0.00;0.62;0.00;0.00;0.62;1.60;1.20;;;29.30;25.80;;;;;;2265798;61;20365;-71
2022/10/08 00:04:25;0.00;0.00;0.62;0.00;0.00;0.62;2.27;1.10;;;29.30;25.80;;;;;;2268857;61;20373;-68
2022/10/08 00:07:09;0.00;0.00;0.62;0.00;0.00;0.62;2.30;1.50;;;29.30;25.80;;;;;;2268761;61;20379;-71
2022/10/08 00:09:54;0.00;0.00;0.62;0.00;0.00;0.62;1.83;1.13;;;29.30;25.90;;;;;;2269546;61;20394;-67
2022/10/08 00:12:39;0.00;0.00;0.62;0.00;0.00;0.62;1.63;1.00;;;29.30;25.90;;;;;;2265856;61;20367;-69
2022/10/08 00:15:23;0.00;0.00;0.62;0.00;0.00;0.62;1.60;0.90;;;29.30;25.90;;;;;;2268630;61;20383;-68
2022/10/08 00:18:08;0.00;0.00;0.62;0.00;0.00;0.62;2.00;1.27;;;29.30;25.90;;;;;;2266821;61;20419;-70
2022/10/08 00:21:05;0.00;0.00;0.62;0.00;0.00;0.62;1.70;1.20;;;29.30;26.50;;;;;;2499752;45;20392;-68
2022/10/08 00:23:51;0.00;0.00;0.62;0.00;0.00;0.62;2.03;1.13;;;29.30;26.00;;;;;;2265563;61;20380;-68
2022/10/08 00:26:37;0.00;0.00;0.62;0.00;0.00;0.62;1.63;1.10;;;29.30;26.00;;;;;;2265949;61;20449;-69
2022/10/08 00:29:22;0.00;0.00;0.62;0.00;0.00;0.62;1.40;0.90;;;29.30;26.00;;;;;;2264967;61;20364;-68
2022/10/08 00:32:07;0.00;0.00;0.62;0.00;0.00;0.62;1.73;1.10;;;29.30;26.00;;;;;;2422756;53;20472;-64
2022/10/08 00:35:01;;;;;;;;;;;;;;;;;;;;;
2022/10/08 00:37:47;0.00;0.00;0.62;0.00;0.00;0.62;2.07;1.00;;;29.30;26.00;;;;;;2268748;61;20396;-65
2022/10/08 00:40:41;0.00;0.00;0.62;0.00;0.00;0.62;2.00;1.03;;;29.30;26.00;;;;;;2269456;61;20752;-67
2022/10/08 00:43:38;0.00;0.00;0.62;0.00;0.00;0.62;2.73;0.90;;;29.30;26.00;;;;;;2557511;45;20368;-66
2022/10/08 00:46:27;0.00;0.00;0.62;0.00;0.00;0.62;1.70;0.90;;;29.30;26.00;;;;;;2268381;61;20415;-68
2022/10/08 00:49:16;0.00;0.00;0.62;0.00;0.00;0.62;2.00;1.00;;;29.30;26.00;;;;;;2265996;61;20447;-65
2022/10/08 00:52:01;0.00;0.00;0.62;0.00;0.00;0.62;1.60;1.00;;;29.30;26.00;;;;;;2266789;61;20373;-63
2022/10/08 00:54:50;0.00;0.00;0.62;0.00;0.00;0.62;1.50;1.07;;;29.20;26.00;;;;;;2439836;53;20384;-63
2022/10/08 00:57:36;0.00;0.00;0.62;0.00;0.00;0.62;2.17;1.10;;;29.30;26.00;;;;;;2268095;61;20385;-63
2022/10/08 01:00:24;0.00;0.00;0.62;0.00;0.00;0.62;1.70;0.93;;;29.30;26.00;;;;;;2265181;61;20598;-63
2022/10/08 01:03:09;0.00;0.00;0.62;0.00;0.00;0.62;1.50;0.90;;;29.30;26.00;;;;;;2265936;61;20794;-63
2022/10/08 01:06:05;0.00;0.00;0.62;0.00;0.00;0.62;1.70;1.20;;;29.30;26.00;;;;;;2266605;61;20598;-63
2022/10/08 01:08:58;0.00;0.00;0.62;0.00;0.00;0.62;1.87;1.00;;;29.30;26.00;;;;;;2265849;61;20372;-63
2022/10/08 01:11:52;0.00;0.00;0.62;0.00;0.00;0.62;1.93;1.13;;;29.30;26.40;;;;;;2265586;61;20365;-63
2022/10/08 01:14:47;0.00;0.00;0.62;0.00;0.00;0.62;2.40;1.00;;;29.30;25.90;;;;;;2265162;61;20480;-63
2022/10/08 01:17:37;0.00;0.00;0.62;0.00;0.00;0.62;2.23;0.80;;;29.30;25.90;;;;;;2405142;45;20392;-63
2022/10/08 01:20:38;0.00;0.00;0.62;0.00;0.00;0.62;2.70;1.40;;;29.20;25.80;;;;;;2265084;61;20675;-63
2022/10/08 01:24:03;0.00;0.00;0.62;0.00;0.00;0.62;2.10;1.03;;;29.20;25.90;;;;;;2265554;61;20373;-63
2022/10/08 01:27:00;0.00;0.00;0.62;0.00;0.00;0.62;2.07;1.17;;;29.20;25.90;;;;;;2265470;61;20784;-63
2022/10/08 01:29:50;0.00;0.00;0.62;0.00;0.00;0.62;1.57;0.90;;;29.20;25.80;;;;;;2264924;61;20385;-62
2022/10/08 01:32:44;0.00;0.00;0.62;0.00;0.00;0.62;1.90;1.10;;;29.20;25.80;;;;;;2266019;61;20373;-63
2022/10/08 01:35:33;0.00;0.00;0.62;0.00;0.00;0.62;1.70;0.93;;;29.20;26.40;;;;;;2543301;45;20396;-64
2022/10/08 01:38:21;0.00;0.00;0.62;0.00;0.00;0.62;1.40;0.80;;;29.20;25.90;;;;;;2265301;61;20652;-64
2022/10/08 01:41:10;0.00;0.00;0.62;0.00;0.00;0.62;2.40;0.97;;;29.20;25.80;;;;;;2266596;61;20392;-62
2022/10/08 01:44:01;0.00;0.00;0.62;0.00;0.00;0.62;2.63;1.20;;;29.20;25.80;;;;;;2267626;61;20591;-62
2022/10/08 01:46:50;0.00;0.00;0.62;0.00;0.00;0.62;2.63;1.30;;;29.10;25.60;;;;;;2322665;57;20628;-63
2022/10/08 01:49:41;0.00;0.00;0.62;0.00;0.00;0.62;2.87;1.20;;;29.10;26.00;;;;;;2264478;61;20500;-62
2022/10/08 01:52:31;0.00;0.00;0.62;0.00;0.00;0.62;2.20;1.20;;;29.10;25.30;;;;;;2265217;61;20372;-62
2022/10/08 01:55:22;0.00;0.00;0.62;0.00;0.00;0.62;2.60;1.13;;;29.10;25.20;;;;;;2266041;61;20388;-62
2022/10/08 01:58:13;0.00;0.00;0.62;0.00;0.00;0.62;3.67;1.40;;;29.00;25.00;;;;;;2560873;45;20356;-62
2022/10/08 02:01:07;0.00;0.00;0.62;0.00;0.00;0.62;4.30;1.63;;;29.00;24.90;;;;;;2269494;61;20387;-62
2022/10/08 02:07:01;0.00;0.00;0.62;0.00;0.00;0.62;2.40;1.60;;;28.80;24.70;;;;;;2265147;61;20365;-62
2022/10/08 02:09:52;0.00;0.00;0.62;0.00;0.00;0.62;4.50;1.60;;;28.80;24.60;;;;;;2265752;61;20425;-63
2022/10/08 02:12:39;0.00;0.00;0.62;0.00;0.00;0.62;4.30;1.80;;;28.70;24.50;;;;;;2584681;45;20443;-63
2022/10/08 02:15:35;0.00;0.00;0.62;0.00;0.00;0.62;4.37;1.63;;;28.70;24.50;;;;;;2265673;61;20447;-62
2022/10/08 02:18:31;0.00;0.00;0.62;0.00;0.00;0.62;3.53;1.90;;;28.60;24.50;;;;;;2268553;61;20367;-62
2022/10/08 02:21:23;0.00;0.00;0.62;0.00;0.00;0.62;4.03;1.63;;;28.60;24.50;;;;;;2265054;61;20424;-62
2022/10/08 02:24:13;0.00;0.00;0.62;0.00;0.00;0.62;4.90;1.80;;;28.50;24.40;;;;;;2396033;53;20745;-62
2022/10/08 02:27:02;0.00;0.00;0.62;0.00;0.00;0.62;3.30;1.63;;;28.50;24.40;;;;;;2267580;61;20400;-62
2022/10/08 02:29:57;0.00;0.00;0.62;0.00;0.00;0.62;3.80;1.53;;;28.40;24.30;;;;;;2267991;61;20383;-62
2022/10/08 02:32:50;0.00;0.00;0.62;0.00;0.00;0.62;4.83;1.93;;;28.40;24.40;;;;;;2269290;61;20368;-62
2022/10/08 02:35:42;0.00;0.00;0.62;0.00;0.00;0.62;2.60;1.80;;;28.30;24.40;;;;;;2266705;61;20393;-63
2022/10/08 02:38:34;0.00;0.00;0.62;0.00;0.00;0.62;8.33;1.70;;;28.30;24.40;;;;;;2269132;61;20375;-64
2022/10/08 02:41:22;0.00;0.00;0.62;0.00;0.00;0.62;3.60;1.50;;;28.20;24.30;;;;;;2266650;61;20443;-63
2022/10/08 02:44:14;0.00;0.00;0.62;0.00;0.00;0.62;5.13;2.00;;;28.20;24.30;;;;;;2265119;61;20441;-63
2022/10/08 02:47:03;0.00;0.00;0.62;0.00;0.00;0.62;3.97;2.27;;;28.10;24.30;;;;;;2267341;61;20407;-63
2022/10/08 02:49:55;0.00;0.00;0.62;0.00;0.00;0.62;4.30;1.83;;;28.10;24.30;;;;;;2264712;61;20420;-63
2022/10/08 02:52:43;0.00;0.00;0.62;0.00;0.00;0.62;4.10;1.83;;;28.10;24.30;;;;;;2265174;61;20369;-63
2022/10/08 02:55:40;0.00;0.00;0.62;0.00;0.00;0.62;2.63;1.53;;;28.00;24.30;;;;;;2265552;61;20381;-63
2022/10/08 02:58:25;0.00;0.00;0.62;0.00;0.00;0.62;4.87;1.90;;;28.00;24.40;;;;;;2266962;61;20371;-63
2022/10/08 03:01:16;0.00;0.00;0.62;0.00;0.00;0.62;3.80;1.50;;;27.90;24.40;;;;;;2269526;61;20415;-62
2022/10/08 03:04:08;0.00;0.00;0.62;0.00;0.00;0.62;4.93;2.03;;;27.90;24.40;;;;;;2268904;61;20639;-63
2022/10/08 03:06:56;0.00;0.00;0.62;0.00;0.00;0.62;2.53;1.60;;;27.80;24.40;;;;;;2265957;61;20432;-63
2022/10/08 03:09:45;0.00;0.00;0.62;0.00;0.00;0.62;3.40;1.43;;;27.80;24.50;;;;;;2267153;61;20508;-63
2022/10/08 03:12:31;0.00;0.00;0.62;0.00;0.00;0.62;4.17;1.90;;;27.80;24.50;;;;;;2268595;61;20400;-63
2022/10/08 03:15:16;0.00;0.00;0.62;0.00;0.00;0.62;3.50;1.83;;;27.80;24.60;;;;;;2269301;61;20387;-64
2022/10/08 03:18:05;0.00;0.00;0.62;0.00;0.00;0.62;3.40;1.70;;;27.70;24.50;;;;;;2266669;61;20794;-63
2022/10/08 03:20:52;0.00;0.00;0.62;0.00;0.00;0.62;3.90;2.20;;;27.70;24.50;;;;;;2405388;53;20413;-62
2022/10/08 03:23:36;0.00;0.00;0.62;0.00;0.00;0.62;3.80;2.10;;;27.70;24.50;;;;;;2265570;61;20468;-63
2022/10/08 03:26:21;0.00;0.00;0.62;0.00;0.00;0.62;3.50;1.97;;;27.70;24.50;;;;;;2264622;61;20361;-63
2022/10/08 03:29:08;0.00;0.00;0.62;0.00;0.00;0.62;5.57;2.03;;;27.60;24.50;;;;;;2265041;61;20587;-63
2022/10/08 03:31:52;0.00;0.00;0.62;0.00;0.00;0.62;2.47;1.53;;;27.60;24.60;;;;;;2265238;61;20380;-63
2022/10/08 03:34:37;0.00;0.00;0.62;0.00;0.00;0.62;3.77;1.90;;;27.60;24.60;;;;;;2264780;61;20369;-63
2022/10/08 03:37:23;0.00;0.00;0.62;0.00;0.00;0.62;3.00;1.53;;;27.50;24.50;;;;;;2265124;61;20408;-63
2022/10/08 03:40:09;0.00;0.00;0.62;0.00;0.00;0.62;3.03;1.63;;;27.50;24.60;;;;;;2264995;61;20432;-63
2022/10/08 03:42:54;0.00;0.00;0.62;0.00;0.00;0.62;3.87;1.50;;;27.50;24.60;;;;;;2343480;58;20376;-64
2022/10/08 03:45:49;0.00;0.00;0.62;0.00;0.00;0.62;3.10;1.40;;;27.50;24.70;;;;;;2269449;61;20376;-63
2022/10/08 03:48:34;0.00;0.00;0.62;0.00;0.00;0.62;2.63;1.70;;;27.40;24.60;;;;;;2266287;61;20372;-63
2022/10/08 03:51:20;0.00;0.00;0.62;0.00;0.00;0.62;3.70;1.53;;;27.40;24.70;;;;;;2268049;61;20393;-63
2022/10/08 03:54:05;0.00;0.00;0.62;0.00;0.00;0.62;2.50;1.70;;;27.40;24.70;;;;;;2264911;61;20365;-63
2022/10/08 03:56:50;0.00;0.00;0.62;0.00;0.00;0.62;3.80;1.50;;;27.40;24.70;;;;;;2264737;61;20446;-63
2022/10/08 03:59:34;0.00;0.00;0.62;0.00;0.00;0.62;3.03;1.60;;;27.40;24.70;;;;;;2264542;61;20400;-63
2022/10/08 04:02:20;0.00;0.00;0.62;0.00;0.00;0.62;2.20;1.43;;;27.40;24.70;;;;;;2267766;61;20368;-63
2022/10/08 04:05:06;0.00;0.00;0.62;0.00;0.00;0.62;2.20;1.50;;;27.40;25.30;;;;;;2264785;61;20580;-64
2022/10/08 04:07:51;0.00;0.00;0.62;0.00;0.00;0.62;2.90;1.67;;;27.30;24.70;;;;;;2517406;45;20379;-63
2022/10/08 04:10:37;0.00;0.00;0.62;0.00;0.00;0.62;2.40;1.10;;;27.30;24.70;;;;;;2268761;61;20391;-63
2022/10/08 04:13:22;0.00;0.00;0.62;0.00;0.00;0.62;4.30;1.50;;;27.30;24.80;;;;;;2269107;61;20411;-63
2022/10/08 04:16:11;0.00;0.00;0.62;0.00;0.00;0.62;2.83;1.53;;;27.30;24.80;;;;;;2269240;61;20617;-63
2022/10/08 04:18:57;0.00;0.00;0.62;0.00;0.00;0.62;3.60;1.87;;;27.30;24.80;;;;;;2264687;61;20372;-63
2022/10/08 04:21:41;0.00;0.00;0.62;0.00;0.00;0.62;3.00;1.57;;;27.30;24.90;;;;;;2265054;61;20377;-63
2022/10/08 04:24:26;0.00;0.00;0.62;0.00;0.00;0.62;3.33;2.00;;;27.30;24.90;;;;;;2267440;61;20368;-63
2022/10/08 04:27:10;0.00;0.00;0.62;0.00;0.00;0.62;3.73;1.70;;;27.20;24.90;;;;;;2422401;53;20449;-63
2022/10/08 04:29:55;0.00;0.00;0.62;0.00;0.00;0.62;3.93;1.73;;;27.20;25.50;;;;;;2269952;61;20391;-63
2022/10/08 04:32:39;0.00;0.00;0.62;0.00;0.00;0.62;3.23;1.90;;;27.20;25.00;;;;;;2266435;61;20573;-63
2022/10/08 04:35:26;0.00;0.00;0.62;0.00;0.00;0.62;4.10;2.00;;;27.20;25.00;;;;;;2442647;45;20418;-63
2022/10/08 04:38:10;0.00;0.00;0.62;0.00;0.00;0.62;3.60;1.77;;;27.20;25.10;;;;;;2265867;61;20780;-63
2022/10/08 04:41:04;0.00;0.00;0.62;0.00;0.00;0.62;4.60;2.10;;;27.10;25.00;;;;;;2265289;61;20620;-63
2022/10/08 04:43:50;0.00;0.00;0.62;0.00;0.00;0.62;5.03;2.40;;;27.10;25.10;;;;;;2265694;61;20404;-63
2022/10/08 04:46:34;0.00;0.00;0.62;0.00;0.00;0.62;4.70;2.23;;;27.10;25.20;;;;;;2268935;61;20483;-63
2022/10/08 04:49:19;0.00;0.00;0.62;0.00;0.00;0.62;3.93;1.73;;;27.10;25.20;;;;;;2266340;61;20373;-63
2022/10/08 04:52:05;0.00;0.00;0.62;0.00;0.00;0.62;3.10;2.03;;;27.00;25.20;;;;;;2270001;61;20735;-64
2022/10/08 04:54:50;0.00;0.00;0.62;0.00;0.00;0.62;3.63;2.37;;;27.00;25.20;;;;;;2410102;53;21051;-63
2022/10/08 04:57:35;0.00;0.00;0.62;0.00;0.00;0.62;4.33;1.80;;;27.00;25.30;;;;;;2265835;61;20464;-63
2022/10/08 05:00:20;0.00;0.00;0.62;0.00;0.00;0.62;3.70;2.03;;;27.00;25.30;;;;;;2266301;61;20492;-65
2022/10/08 05:03:05;0.00;0.00;0.62;0.00;0.00;0.62;3.53;1.90;;;26.90;25.30;;;;;;2392997;53;20373;-64
2022/10/08 05:05:49;0.00;0.00;0.62;0.00;0.00;0.62;4.37;2.00;;;26.90;25.20;;;;;;2265714;61;20411;-62
2022/10/08 05:08:36;0.00;0.00;0.62;0.00;0.00;0.62;4.10;1.63;;;26.90;25.30;;;;;;2265749;61;20380;-63
2022/10/08 05:11:26;0.00;0.00;0.62;0.00;0.00;0.62;5.77;1.80;;;26.90;25.80;;;;;;2265160;61;20531;-63
2022/10/08 05:14:11;0.00;0.00;0.62;0.00;0.00;0.62;3.53;2.13;;;26.80;25.30;;;;;;2571890;45;20388;-63
2022/10/08 05:16:56;0.00;0.00;0.62;0.00;0.00;0.62;2.87;1.80;;;26.80;25.30;;;;;;2266540;61;20399;-63
2022/10/08 05:19:40;0.00;0.00;0.62;0.00;0.00;0.62;4.73;1.60;;;26.80;25.30;;;;;;2266441;61;20648;-63
2022/10/08 05:22:25;0.00;0.00;0.62;0.00;0.00;0.62;7.67;2.20;;;26.80;25.40;;;;;;2564026;45;20369;-63
2022/10/08 05:25:11;0.00;0.00;0.62;0.00;0.00;0.62;3.67;2.40;;;26.80;25.40;;;;;;2264982;61;20608;-63
2022/10/08 05:27:58;0.00;0.00;0.62;0.00;0.00;0.62;5.50;2.40;;;26.70;25.40;;;;;;2265291;61;20832;-63
2022/10/08 05:30:43;0.00;0.00;0.62;0.00;0.00;0.62;5.80;2.07;;;26.70;25.90;;;;;;2265443;61;20432;-63
2022/10/08 05:33:28;0.00;0.00;0.62;0.00;0.00;0.62;2.87;2.13;;;26.70;25.40;;;;;;2266152;61;20376;-63
2022/10/08 05:36:18;0.00;0.00;0.62;0.00;0.00;0.62;3.70;2.50;;;26.70;25.50;;;;;;2266643;61;20380;-63
2022/10/08 05:39:04;0.00;0.00;0.62;0.00;0.00;0.62;3.43;1.90;;;26.70;25.50;;;;;;2264329;61;20419;-63
2022/10/08 05:41:52;0.00;0.00;0.62;0.00;0.00;0.62;4.07;2.53;;;26.60;25.50;;;;;;2418668;45;20368;-63
2022/10/08 05:44:36;0.00;0.00;0.62;0.00;0.00;0.62;4.33;2.20;;;26.60;25.50;;;;;;2265659;61;20588;-63
2022/10/08 05:47:21;0.00;0.00;0.62;0.00;0.00;0.62;4.07;2.67;;;26.60;25.50;;;;;;2430549;45;20401;-63
2022/10/08 05:50:07;0.00;0.00;0.62;0.00;0.00;0.62;3.50;2.60;;;26.60;25.50;;;;;;2490248;45;20385;-63
2022/10/08 05:52:52;0.00;0.00;0.62;0.00;0.00;0.62;6.53;2.90;;;26.60;25.60;;;;;;2265228;61;20368;-63
2022/10/08 05:55:37;0.00;0.00;0.62;0.00;0.00;0.62;3.70;2.30;;;26.50;25.60;;;;;;2265139;61;20397;-63
2022/10/08 05:58:23;0.00;0.00;0.62;0.00;0.00;0.62;4.67;3.33;;;26.50;25.60;;;;;;2265381;61;20403;-63
2022/10/08 06:01:13;0.00;0.00;0.62;0.00;0.00;0.62;3.90;2.97;;;26.50;25.70;;;;;;2264983;61;20422;-63
2022/10/08 06:04:00;0.00;0.00;0.62;0.00;0.00;0.62;4.93;3.00;;;26.50;26.30;;;;;;2265463;61;20369;-62
2022/10/08 06:06:45;0.00;0.00;0.62;0.00;0.00;0.62;6.67;3.17;;;26.40;25.80;;;;;;2265661;61;20438;-63
2022/10/08 06:09:30;0.00;0.00;0.62;0.00;0.00;0.62;6.93;3.03;;;26.40;25.90;;;;;;2403919;53;20439;-64
2022/10/08 06:12:18;0.00;0.00;0.62;0.00;0.00;0.62;5.23;3.10;;;26.40;26.00;;;;;;2268251;61;20399;-64
2022/10/08 06:15:05;0.00;0.00;0.62;0.00;0.00;0.62;8.00;5.43;;;26.30;25.90;;;;;;2265260;61;20364;-63
2022/10/08 06:17:50;0.00;0.00;0.62;0.00;0.00;0.62;5.80;3.37;;;26.30;26.00;;;;;;2265924;61;20381;-65
2022/10/08 06:20:36;0.00;0.00;0.62;0.00;0.00;0.62;6.00;3.47;;;26.30;26.00;;;;;;2265294;61;20389;-64
2022/10/08 06:23:23;0.00;0.00;0.62;0.00;0.00;0.62;4.97;3.60;;;26.20;26.20;;;;;;2265250;61;20358;-64
2022/10/08 06:26:09;0.00;0.00;0.62;0.00;0.00;0.62;11.33;3.73;;;26.10;26.30;;;;;;2265235;61;20713;-68
2022/10/08 06:28:56;0.00;0.00;0.62;0.00;0.00;0.62;7.50;3.97;;;26.00;26.40;;;;;;2556855;45;20368;-62
2022/10/08 06:31:43;0.00;0.00;0.62;0.00;0.00;0.62;9.40;3.73;;;25.90;26.50;;;;;;2265046;61;20372;-62
2022/10/08 06:34:28;0.00;0.00;0.62;0.00;0.00;0.62;4.20;2.40;;;25.80;26.60;;;;;;2265180;61;20365;-64
2022/10/08 06:37:13;0.00;0.00;0.62;0.00;0.00;0.62;6.30;3.83;;;25.70;26.70;;;;;;2265320;61;20373;-67
2022/10/08 06:39:57;0.00;0.00;0.62;0.00;0.00;0.62;6.00;3.40;;;25.70;26.80;;;;;;2264998;61;20444;-65
2022/10/08 06:42:45;0.00;0.00;0.62;0.00;0.00;0.62;10.60;3.37;;;25.70;26.80;;;;;;2351442;53;20363;-63
2022/10/08 06:45:30;0.00;0.00;0.62;0.00;0.00;0.62;5.43;2.90;;;25.60;26.90;;;;;;2269333;61;20410;-63
2022/10/08 06:48:18;0.00;0.00;0.62;0.00;0.00;0.62;8.17;3.80;;;25.60;26.90;;;;;;2532073;45;20356;-67
2022/10/08 06:51:11;0.00;0.00;0.62;0.00;0.00;0.62;4.57;3.57;;;25.60;26.90;;;;;;2265835;61;20397;-62
2022/10/08 06:53:58;0.00;0.00;0.62;0.00;0.00;0.62;4.97;3.10;;;25.60;27.00;;;;;;2264911;61;20396;-66
2022/10/08 06:56:42;0.00;0.00;0.62;0.00;0.00;0.62;6.03;2.80;;;25.50;27.00;;;;;;2265229;61;20389;-62
2022/10/08 06:59:27;0.00;0.00;0.62;0.00;0.00;0.62;6.97;3.50;;;25.50;27.00;;;;;;2267629;61;20671;-68
2022/10/08 07:02:12;0.00;0.00;0.62;0.00;0.00;0.62;3.30;2.87;;;25.50;27.10;;;;;;2268320;61;20366;-69
2022/10/08 07:04:58;0.00;0.00;0.62;0.00;0.00;0.62;6.67;3.10;;;25.50;27.10;;;;;;2269467;61;20364;-68
2022/10/08 07:07:44;0.00;0.00;0.62;0.00;0.00;0.62;5.20;3.00;;;25.50;27.20;;;;;;2416051;53;20365;-67
2022/10/08 07:10:31;0.00;0.00;0.62;0.00;0.00;0.62;5.07;2.97;;;25.40;27.20;;;;;;2265504;61;20443;-66
2022/10/08 07:13:16;0.00;0.00;0.62;0.00;0.00;0.62;5.40;3.83;;;25.40;27.20;;;;;;2265611;61;20404;-68
2022/10/08 07:16:03;0.00;0.00;0.62;0.00;0.00;0.62;6.47;2.90;;;25.40;27.30;;;;;;2264674;61;20643;-68
2022/10/08 07:18:50;0.00;0.00;0.62;0.00;0.00;0.62;4.57;2.60;;;25.40;27.30;;;;;;2264904;61;20427;-69
2022/10/08 07:21:37;0.00;0.00;0.62;0.00;0.00;0.62;6.47;3.20;;;25.40;27.40;;;;;;2265216;61;20377;-66
2022/10/08 07:24:21;0.00;0.00;0.62;0.00;0.00;0.62;6.70;3.43;;;25.30;27.30;;;;;;2264883;61;20712;-68
2022/10/08 07:27:06;0.00;0.00;0.62;0.00;0.00;0.62;6.67;3.23;;;25.30;27.40;;;;;;2534093;45;20423;-69
2022/10/08 07:29:51;0.00;0.00;0.62;0.00;0.00;0.62;5.53;2.80;;;25.30;27.50;;;;;;2264648;61;20614;-69
2022/10/08 07:32:35;0.00;0.00;0.62;0.00;0.00;0.62;5.40;3.07;;;25.30;27.50;;;;;;2267490;61;20371;-66
2022/10/08 07:35:20;0.00;0.00;0.62;0.00;0.00;0.62;4.87;3.50;;;25.30;27.50;;;;;;2565422;45;20388;-60
2022/10/08 07:38:06;0.00;0.00;0.62;0.00;0.00;0.62;6.57;2.70;;;25.20;27.50;;;;;;2267216;61;20733;-63
2022/10/08 07:40:55;0.00;0.00;0.62;0.00;0.00;0.62;4.57;3.20;;;25.20;27.50;;;;;;2266125;61;20605;-63
2022/10/08 07:43:40;0.00;0.00;0.62;0.00;0.00;0.62;4.40;2.40;;;25.20;27.50;;;;;;2265231;61;20376;-67
2022/10/08 07:46:26;0.00;0.00;0.62;0.00;0.00;0.62;5.70;2.60;;;25.10;27.50;;;;;;2266325;61;20415;-66
2022/10/08 07:49:11;0.00;0.00;0.62;0.00;0.00;0.62;4.47;2.23;;;25.10;27.60;;;;;;2265039;61;20752;-61
2022/10/08 07:51:56;0.00;0.00;0.62;0.00;0.00;0.62;6.13;3.17;;;25.10;27.70;;;;;;2264615;61;20365;-65
2022/10/08 07:54:44;0.00;0.00;0.62;0.00;0.00;0.62;3.30;2.50;;;25.10;27.70;;;;;;2264821;61;20447;-64
2022/10/08 07:57:28;0.00;0.00;0.62;0.00;0.00;0.62;8.10;3.00;;;25.10;27.70;;;;;;2265473;61;20392;-63
2022/10/08 08:00:13;0.00;0.00;0.62;0.00;0.00;0.62;4.93;2.87;;;25.10;27.70;;;;;;2264192;61;20409;-62
2022/10/08 08:02:58;0.00;0.00;0.62;0.00;0.00;0.62;4.00;2.57;;;25.10;27.70;;;;;;2554775;45;20447;-63
2022/10/08 08:05:42;0.00;0.00;0.62;0.00;0.00;0.62;3.40;2.30;;;25.10;27.70;;;;;;2269090;61;20408;-63
2022/10/08 08:08:27;0.00;0.00;0.62;0.00;0.00;0.62;3.33;2.37;;;25.10;27.70;;;;;;2265160;61;20598;-64
2022/10/08 08:11:15;0.00;0.00;0.62;0.00;0.00;0.62;5.90;2.30;;;25.10;27.80;;;;;;2546811;45;20391;-60
2022/10/08 08:14:00;0.00;0.00;0.62;0.00;0.00;0.62;5.07;2.20;;;25.10;27.80;;;;;;2269733;61;20380;-62
2022/10/08 08:16:44;0.00;0.00;0.62;0.00;0.00;0.62;4.40;1.90;;;25.10;27.70;;;;;;2269169;61;20423;-62
2022/10/08 08:19:29;0.00;0.00;0.62;0.00;0.00;0.62;2.83;2.10;;;25.10;27.70;;;;;;2265909;61;20752;-59
2022/10/08 08:22:14;0.00;0.00;0.62;0.00;0.00;0.62;3.00;1.63;;;25.10;27.60;;;;;;2265272;61;20396;-60
2022/10/08 08:24:58;0.00;0.00;0.62;0.00;0.00;0.62;2.00;1.57;;;25.20;27.60;;;;;;2266091;61;20701;-61
2022/10/08 08:27:44;0.00;0.00;0.62;0.00;0.00;0.62;2.77;1.77;;;25.20;27.50;;;;;;2267305;61;20763;-60
2022/10/08 08:30:29;0.00;0.00;0.62;0.00;0.00;0.62;2.37;1.37;;;25.20;27.40;;;;;;2407223;53;20602;-61
2022/10/08 08:33:13;0.00;0.00;0.62;0.00;0.00;0.62;2.83;1.73;;;25.30;27.40;;;;;;2265561;61;20587;-61
2022/10/08 08:35:58;0.00;0.00;0.62;0.00;0.00;0.62;2.17;1.50;;;25.30;27.70;;;;;;2265604;61;20412;-62
2022/10/08 08:38:44;0.00;0.00;0.62;0.00;0.00;0.62;3.30;2.00;;;25.30;27.30;;;;;;2515194;45;20576;-62
2022/10/08 08:41:44;0.00;0.00;0.62;0.00;0.00;0.62;2.30;1.50;;;25.40;27.40;;;;;;2268664;61;20388;-61
2022/10/08 08:44:33;0.00;0.00;0.62;0.00;0.00;0.62;2.30;1.50;;;25.40;27.30;;;;;;2269370;61;20725;-62
2022/10/08 08:47:21;0.00;0.00;0.62;0.00;0.00;0.62;2.90;1.63;;;25.50;27.30;;;;;;2350282;53;20733;-62
2022/10/08 08:50:18;0.00;0.00;0.62;0.00;0.00;0.62;2.37;1.30;;;25.50;27.20;;;;;;2401167;53;20500;-63
2022/10/08 08:53:07;0.00;0.00;0.62;0.00;0.00;0.62;3.17;1.20;;;25.50;27.20;;;;;;2268005;61;20372;-62
2022/10/08 08:55:57;0.00;0.00;0.62;0.00;0.00;0.62;1.83;1.40;;;25.60;27.30;;;;;;2268638;61;20422;-61
2022/10/08 08:58:48;0.00;0.00;0.62;0.00;0.00;0.62;2.30;1.53;;;25.60;27.30;;;;;;2265537;61;20408;-62
2022/10/08 09:01:41;0.00;0.00;0.62;0.00;0.00;0.62;2.03;1.17;;;25.70;27.30;;;;;;2265432;61;20462;-62
2022/10/08 09:04:37;0.00;0.00;0.62;0.00;0.00;0.62;1.47;1.03;;;25.70;27.30;;;;;;2267142;61;20584;-61
2022/10/08 09:07:31;0.00;0.00;0.62;0.00;0.00;0.62;2.90;1.50;;;25.70;27.20;;;;;;2265707;61;20588;-62
2022/10/08 09:10:22;0.00;0.00;0.62;0.00;0.00;0.62;1.80;1.23;;;25.80;27.30;;;;;;2268400;61;20426;-62
2022/10/08 09:13:17;0.00;0.00;0.62;0.00;0.00;0.62;2.03;1.23;;;25.80;27.20;;;;;;2268089;61;20371;-62
2022/10/08 09:16:02;0.00;0.00;0.62;0.00;0.00;0.62;2.77;1.30;;;25.80;27.20;;;;;;2539160;45;20795;-62
2022/10/08 09:18:50;0.00;0.00;0.62;0.00;0.00;0.62;2.33;1.63;;;25.90;27.20;;;;;;2266826;61;20482;-60
2022/10/08 09:21:35;0.00;0.00;0.62;0.00;0.00;0.62;2.03;1.27;;;25.90;27.10;;;;;;2265868;61;20495;-62
2022/10/08 09:24:20;0.00;0.00;0.62;0.00;0.00;0.62;3.07;1.70;;;26.00;27.20;;;;;;2265629;61;20372;-61
2022/10/08 09:27:12;0.00;0.00;0.62;0.00;0.00;0.62;2.17;1.40;;;26.00;27.10;;;;;;2266860;61;20414;-61
2022/10/08 09:29:56;0.00;0.00;0.62;0.00;0.00;0.62;2.23;1.47;;;26.00;27.10;;;;;;2265618;61;20412;-61
2022/10/08 09:32:41;0.00;0.00;0.62;0.00;0.00;0.62;2.50;1.20;;;26.10;27.20;;;;;;2265700;61;20403;-63
2022/10/08 09:35:27;0.00;0.00;0.62;0.00;0.00;0.62;3.10;1.20;;;26.10;27.20;;;;;;2460524;45;20384;-62
2022/10/08 09:38:22;0.00;0.00;0.62;0.00;0.00;0.62;2.43;1.60;;;26.20;27.70;;;;;;2264995;61;20496;-62
2022/10/08 09:41:17;0.00;0.00;0.62;0.00;0.00;0.62;1.73;1.10;;;26.20;27.20;;;;;;2267131;61;20431;-62
2022/10/08 09:44:18;0.00;0.00;0.62;0.00;0.00;0.62;2.97;1.37;;;26.20;27.10;;;;;;2267367;61;20456;-63
2022/10/08 09:47:06;0.00;0.00;0.62;0.00;0.00;0.62;3.03;1.40;;;26.30;27.10;;;;;;2267358;61;20441;-60
2022/10/08 09:50:03;0.00;0.00;0.62;0.00;0.00;0.62;2.13;1.20;;;26.30;27.00;;;;;;2267963;61;20504;-61
2022/10/08 09:52:54;0.00;0.00;0.62;0.00;0.00;0.62;4.47;1.20;;;26.30;27.00;;;;;;2265358;61;20393;-62
2022/10/08 09:55:46;0.00;0.00;0.62;0.00;0.00;0.62;1.80;1.37;;;26.30;26.90;;;;;;2265892;61;20393;-61
2022/10/08 09:58:34;0.00;0.00;0.62;0.00;0.00;0.62;2.23;1.40;;;26.40;27.00;;;;;;2264927;61;20401;-62
2022/10/08 10:01:19;0.00;0.00;0.62;0.00;0.00;0.62;2.40;1.43;;;26.40;27.00;;;;;;2575366;45;20400;-62
2022/10/08 10:04:05;0.00;0.00;0.62;0.00;0.00;0.62;1.97;1.17;;;26.50;27.00;;;;;;2266215;61;20371;-61
2022/10/08 10:06:56;0.00;0.00;0.62;0.00;0.00;0.62;1.93;1.47;;;26.50;27.00;;;;;;2269175;61;20356;-62
2022/10/08 10:09:46;0.00;0.00;0.62;0.00;0.00;0.62;1.60;0.90;;;26.50;27.00;;;;;;2268969;61;20652;-62
2022/10/08 10:12:36;0.00;0.00;0.62;0.00;0.00;0.62;3.37;1.33;;;26.50;27.00;;;;;;2266737;61;20584;-62
2022/10/08 10:15:25;0.00;0.00;0.62;0.00;0.00;0.62;2.60;1.43;;;26.60;27.00;;;;;;2266275;61;20433;-62
2022/10/08 10:18:18;0.00;0.00;0.62;0.00;0.00;0.62;1.90;1.37;;;26.60;27.00;;;;;;2266722;61;20380;-60
2022/10/08 10:21:09;0.00;0.00;0.62;0.00;0.00;0.62;2.73;1.30;;;26.70;27.10;;;;;;2265240;61;20388;-61
2022/10/08 10:24:09;0.00;0.00;0.62;0.00;0.00;0.62;2.37;1.23;;;26.70;27.00;;;;;;2265292;61;20383;-61
2022/10/08 10:27:02;0.00;0.00;0.62;0.00;0.00;0.62;1.77;1.33;;;26.70;27.00;;;;;;2265373;61;20376;-62
2022/10/08 10:29:56;0.00;0.00;0.62;0.00;0.00;0.62;2.17;1.10;;;26.80;27.10;;;;;;2264664;61;20913;-62
2022/10/08 10:32:47;0.00;0.00;0.62;0.00;0.00;0.62;1.70;0.97;;;26.80;27.00;;;;;;2265817;61;20708;-61
2022/10/08 10:35:39;0.00;0.00;0.62;0.00;0.00;0.62;1.93;1.30;;;26.80;27.00;;;;;;2533431;45;20419;-61
2022/10/08 10:38:28;0.00;0.00;0.62;0.00;0.00;0.62;1.77;1.10;;;26.90;27.00;;;;;;2267782;61;20368;-61
2022/10/08 10:41:26;0.00;0.00;0.62;0.00;0.00;0.62;1.93;1.20;;;27.00;27.10;;;;;;2266481;61;20434;-62
2022/10/08 10:44:17;0.00;0.00;0.62;0.00;0.00;0.62;1.80;1.20;;;27.00;27.00;;;;;;2265029;61;20369;-61
2022/10/08 10:47:04;0.00;0.00;0.62;0.00;0.00;0.62;2.20;1.33;;;27.00;27.00;;;;;;2267024;61;20801;-62
2022/10/08 10:49:50;0.00;0.00;0.62;0.00;0.00;0.62;2.00;1.10;;;27.00;26.90;;;;;;2264841;61;20427;-62
2022/10/08 10:52:51;0.00;0.00;0.62;0.00;0.00;0.62;1.97;1.30;;;27.10;26.90;;;;;;2265104;61;20415;-62
2022/10/08 10:55:43;0.00;0.00;0.62;0.00;0.00;0.62;2.70;1.27;;;27.10;26.90;;;;;;2265574;61;20601;-61
2022/10/08 10:58:40;0.00;0.00;0.62;0.00;0.00;0.62;2.00;1.20;;;27.10;26.90;;;;;;2267246;61;20419;-61
2022/10/08 11:01:37;0.00;0.00;0.62;0.00;0.00;0.62;2.40;1.10;;;27.20;26.90;;;;;;2506649;53;20449;-60
2022/10/08 11:04:43;0.00;0.00;0.62;0.00;0.00;0.62;1.47;0.93;;;27.20;26.80;;;;;;2414359;53;20477;-62
2022/10/08 11:08:04;0.00;0.00;0.62;0.00;0.00;0.62;3.00;1.37;;;27.20;26.80;;;;;;2267790;61;20433;-62
2022/10/08 11:11:09;0.00;0.00;0.62;0.00;0.00;0.62;2.50;1.30;;;27.30;26.80;;;;;;2418243;53;20688;-63